Pagrindinis puslapis
METAR-TAF:

METAR-TAF

Oro uostai :

Bartow, Florida, Jungtinės Amerikos Valstijos

platuma: 27-57N, ilguma: 081-47W, Aukštis: 39 m

Dabartinis oras

Ataskaita buvo paskelbta 24 minutes, ne 10:55 UTC
Ramus vėjas
Temperatūra 23°C
Drėgmė 94%
Slėgis 1015 hPa
Matomumas: 16.1 km
Išsisklaidę debesys ne aukštis 6000 ft

METAR: KBOW 041055Z AUTO 00000KT 10SM SCT060 23/22 A2996 RMK AO2

Laikas: 07:19 (11:19 UTC)


TAF: trūkstamas

Orai ataskaitas ir orų prognozės (METAR, TAF).

turimą stotys yra geltonos ir raudonos taškus žemėlapyje.

Perkelti pele per norėdami pamatyti stoties vardą.

Tada spustelėkite, norėdami matyti oro stebėjimo ir prognozės.

Norėdami pakeisti žemėlapį: spustelėkite ant žalios mygtukų su juodo kryžiaus žemyn,; žalią mygtuką su brūkšneliu, jei norite nutolinti; arba žalių rodyklių gretimoms žemėlapius.


METAR-TAF: